This is the latest recevied weather packets stored in our database for station/object F6BIJ-13. If no packets are shown the sender has not sent any weather packets the latest 10 day(s).
| Time | Temp. | Humidity | Pressure | Rain* | Wind** | Luminosity | Snow |
|---|---|---|---|---|---|---|---|
| 1778263957 | 15° C | 95% | 1015.3 hPa | 0 mm | - | - | - |
| 1778263597 | 15.56° C | 95% | 1015.4 hPa | 0 mm | - | - | - |
| 1778263237 | 15.56° C | 95% | 1015.2 hPa | 0 mm | - | - | - |
| 1778262877 | 15.56° C | 96% | 1015 hPa | 0 mm | - | - | - |
| 1778262517 | 15.56° C | 96% | 1015 hPa | 0 mm | - | - | - |
| 1778262157 | 15.56° C | 96% | 1014.9 hPa | 0 mm | - | - | - |
| 1778261841 | 15° C | 94% | 1014.9 hPa | 2.79 mm | - | - | - |
| 1778261838 | 15° C | 95% | 1015 hPa | 0 mm | - | - | - |
| 1778256036 | 21.11° C | 56% | 1013.3 hPa | 0 mm | - | - | - |
| 1778255677 | 21.67° C | 56% | 1013.2 hPa | 0 mm | - | - | - |
| 1778255317 | 21.11° C | 54% | 1013.2 hPa | 0 mm | - | - | - |
| 1778254957 | 21.11° C | 52% | 1013.1 hPa | 0 mm | - | - | - |
| 1778254597 | 21.67° C | 53% | 1013.1 hPa | 0 mm | - | - | - |
| 1778254237 | 21.67° C | 53% | 1013.1 hPa | 0 mm | - | - | - |
| 1778253877 | 22.22° C | 51% | 1013.2 hPa | 0 mm | - | - | - |
| 1778253517 | 22.22° C | 49% | 1013.2 hPa | 0 mm | - | - | - |
| 1778253157 | 21.67° C | 50% | 1013.2 hPa | 0 mm | - | - | - |
| 1778252796 | 22.78° C | 50% | 1013.2 hPa | 0 mm | - | - | - |
| 1778252436 | 22.22° C | 48% | 1013.2 hPa | 0 mm | - | - | - |
| 1778252077 | 22.22° C | 47% | 1013.2 hPa | 0 mm | - | - | - |
| 1778251717 | 22.22° C | 51% | 1013.3 hPa | 0 mm | - | - | - |
| 1778251357 | 22.22° C | 50% | 1013.3 hPa | 0 mm | - | - | - |
| 1778250997 | 22.22° C | 48% | 1013.3 hPa | 0 mm | - | - | - |
| 1778250637 | 21.67° C | 50% | 1013.4 hPa | 0 mm | - | - | - |
| 1778250278 | 21.67° C | 47% | 1013.4 hPa | 0 mm | - | - | - |
* Rain latest 24 hours (hover to see other rain measurements)
** Current wind speed in m/s (hover to see current wind gust speed)